sensor_id;sensor_type;location;lat;lon;timestamp;P1;durP1;ratioP1;P2;durP2;ratioP2
1987;SDS011;12775;46.994;15.498;2024-03-06T00:02:25;21.22;;;14.60;;
1987;SDS011;12775;46.994;15.498;2024-03-06T00:04:52;15.24;;;13.64;;
1987;SDS011;12775;46.994;15.498;2024-03-06T00:07:19;17.80;;;14.06;;
1987;SDS011;12775;46.994;15.498;2024-03-06T00:09:47;17.10;;;14.30;;
1987;SDS011;12775;46.994;15.498;2024-03-06T00:12:14;14.32;;;12.82;;
1987;SDS011;12775;46.994;15.498;2024-03-06T00:14:42;16.28;;;13.98;;
1987;SDS011;12775;46.994;15.498;2024-03-06T00:17:09;21.26;;;15.48;;
1987;SDS011;12775;46.994;15.498;2024-03-06T00:19:36;14.88;;;12.44;;
1987;SDS011;12775;46.994;15.498;2024-03-06T00:22:04;19.50;;;13.42;;
1987;SDS011;12775;46.994;15.498;2024-03-06T00:24:31;17.38;;;14.68;;
1987;SDS011;12775;46.994;15.498;2024-03-06T00:26:58;17.36;;;13.68;;
1987;SDS011;12775;46.994;15.498;2024-03-06T00:29:26;17.18;;;12.64;;
1987;SDS011;12775;46.994;15.498;2024-03-06T00:31:53;16.28;;;11.86;;
1987;SDS011;12775;46.994;15.498;2024-03-06T00:34:21;14.08;;;12.56;;
1987;SDS011;12775;46.994;15.498;2024-03-06T00:36:48;18.96;;;11.84;;
1987;SDS011;12775;46.994;15.498;2024-03-06T00:39:15;13.36;;;11.24;;
1987;SDS011;12775;46.994;15.498;2024-03-06T00:41:44;13.88;;;12.38;;
1987;SDS011;12775;46.994;15.498;2024-03-06T00:44:11;18.50;;;13.32;;
1987;SDS011;12775;46.994;15.498;2024-03-06T00:46:38;14.04;;;12.60;;
1987;SDS011;12775;46.994;15.498;2024-03-06T00:49:06;16.76;;;13.20;;
1987;SDS011;12775;46.994;15.498;2024-03-06T00:51:33;17.10;;;14.10;;
1987;SDS011;12775;46.994;15.498;2024-03-06T00:54:00;17.30;;;12.30;;
1987;SDS011;12775;46.994;15.498;2024-03-06T00:56:28;16.02;;;12.92;;
1987;SDS011;12775;46.994;15.498;2024-03-06T00:58:55;21.92;;;15.60;;
1987;SDS011;12775;46.994;15.498;2024-03-06T01:01:23;17.72;;;13.94;;
1987;SDS011;12775;46.994;15.498;2024-03-06T01:03:50;16.64;;;12.38;;
1987;SDS011;12775;46.994;15.498;2024-03-06T01:06:17;14.06;;;11.30;;
1987;SDS011;12775;46.994;15.498;2024-03-06T01:08:45;15.42;;;11.74;;
1987;SDS011;12775;46.994;15.498;2024-03-06T01:11:12;15.62;;;13.06;;
1987;SDS011;12775;46.994;15.498;2024-03-06T01:13:40;17.02;;;12.74;;
1987;SDS011;12775;46.994;15.498;2024-03-06T01:16:07;14.52;;;12.44;;
1987;SDS011;12775;46.994;15.498;2024-03-06T01:18:35;12.86;;;11.44;;
1987;SDS011;12775;46.994;15.498;2024-03-06T01:21:02;13.34;;;11.88;;
1987;SDS011;12775;46.994;15.498;2024-03-06T01:23:31;15.28;;;13.66;;
1987;SDS011;12775;46.994;15.498;2024-03-06T01:25:58;15.04;;;13.56;;
1987;SDS011;12775;46.994;15.498;2024-03-06T01:28:25;15.64;;;13.42;;
1987;SDS011;12775;46.994;15.498;2024-03-06T01:30:53;15.06;;;12.88;;
1987;SDS011;12775;46.994;15.498;2024-03-06T01:33:20;17.10;;;13.60;;
1987;SDS011;12775;46.994;15.498;2024-03-06T01:35:48;14.76;;;13.18;;
1987;SDS011;12775;46.994;15.498;2024-03-06T01:38:15;16.04;;;14.34;;
1987;SDS011;12775;46.994;15.498;2024-03-06T01:40:43;14.76;;;13.28;;
1987;SDS011;12775;46.994;15.498;2024-03-06T01:45:45;17.78;;;12.68;;
1987;SDS011;12775;46.994;15.498;2024-03-06T01:48:13;19.42;;;15.20;;
1987;SDS011;12775;46.994;15.498;2024-03-06T01:50:40;18.14;;;16.16;;
1987;SDS011;12775;46.994;15.498;2024-03-06T01:53:07;16.58;;;14.90;;
1987;SDS011;12775;46.994;15.498;2024-03-06T01:55:35;19.10;;;14.66;;
1987;SDS011;12775;46.994;15.498;2024-03-06T01:58:02;17.36;;;15.04;;
1987;SDS011;12775;46.994;15.498;2024-03-06T02:00:30;19.96;;;16.04;;
1987;SDS011;12775;46.994;15.498;2024-03-06T02:02:57;18.92;;;14.04;;
1987;SDS011;12775;46.994;15.498;2024-03-06T02:05:24;19.12;;;15.26;;
1987;SDS011;12775;46.994;15.498;2024-03-06T02:07:52;15.72;;;13.40;;
1987;SDS011;12775;46.994;15.498;2024-03-06T02:10:19;21.14;;;16.24;;
1987;SDS011;12775;46.994;15.498;2024-03-06T02:12:46;22.54;;;16.62;;
1987;SDS011;12775;46.994;15.498;2024-03-06T02:15:14;18.28;;;14.64;;
1987;SDS011;12775;46.994;15.498;2024-03-06T02:17:41;20.40;;;15.48;;
1987;SDS011;12775;46.994;15.498;2024-03-06T02:20:09;19.40;;;15.88;;
1987;SDS011;12775;46.994;15.498;2024-03-06T02:22:38;20.08;;;15.02;;
1987;SDS011;12775;46.994;15.498;2024-03-06T02:25:05;17.10;;;14.22;;
1987;SDS011;12775;46.994;15.498;2024-03-06T02:27:33;17.38;;;14.74;;
1987;SDS011;12775;46.994;15.498;2024-03-06T02:30:01;18.70;;;14.84;;
1987;SDS011;12775;46.994;15.498;2024-03-06T02:32:28;17.76;;;14.50;;
1987;SDS011;12775;46.994;15.498;2024-03-06T02:34:55;20.38;;;15.32;;
1987;SDS011;12775;46.994;15.498;2024-03-06T02:37:23;17.20;;;14.10;;
1987;SDS011;12775;46.994;15.498;2024-03-06T02:39:50;18.42;;;13.56;;
1987;SDS011;12775;46.994;15.498;2024-03-06T02:42:18;14.84;;;13.34;;
1987;SDS011;12775;46.994;15.498;2024-03-06T02:44:45;16.82;;;12.62;;
1987;SDS011;12775;46.994;15.498;2024-03-06T02:47:12;14.74;;;13.08;;
1987;SDS011;12775;46.994;15.498;2024-03-06T02:49:40;13.42;;;12.06;;
1987;SDS011;12775;46.994;15.498;2024-03-06T02:52:07;13.14;;;11.80;;
1987;SDS011;12775;46.994;15.498;2024-03-06T02:54:35;13.98;;;12.54;;
1987;SDS011;12775;46.994;15.498;2024-03-06T02:57:02;16.50;;;14.72;;
1987;SDS011;12775;46.994;15.498;2024-03-06T02:59:29;19.04;;;15.22;;
1987;SDS011;12775;46.994;15.498;2024-03-06T03:01:57;21.44;;;16.66;;
1987;SDS011;12775;46.994;15.498;2024-03-06T03:04:24;19.34;;;16.82;;
1987;SDS011;12775;46.994;15.498;2024-03-06T03:06:51;18.48;;;14.44;;
1987;SDS011;12775;46.994;15.498;2024-03-06T03:09:19;20.84;;;16.36;;
1987;SDS011;12775;46.994;15.498;2024-03-06T03:11:46;20.64;;;16.24;;
1987;SDS011;12775;46.994;15.498;2024-03-06T03:14:13;19.88;;;14.82;;
1987;SDS011;12775;46.994;15.498;2024-03-06T03:16:41;17.88;;;15.94;;
1987;SDS011;12775;46.994;15.498;2024-03-06T03:19:08;20.80;;;16.42;;
1987;SDS011;12775;46.994;15.498;2024-03-06T03:21:36;22.22;;;17.96;;
1987;SDS011;12775;46.994;15.498;2024-03-06T03:24:02;20.44;;;17.24;;
1987;SDS011;12775;46.994;15.498;2024-03-06T03:26:30;23.88;;;17.40;;
1987;SDS011;12775;46.994;15.498;2024-03-06T03:28:57;25.12;;;17.80;;
1987;SDS011;12775;46.994;15.498;2024-03-06T03:31:24;19.36;;;14.12;;
1987;SDS011;12775;46.994;15.498;2024-03-06T03:33:52;18.26;;;16.36;;
1987;SDS011;12775;46.994;15.498;2024-03-06T03:36:19;18.06;;;16.06;;
1987;SDS011;12775;46.994;15.498;2024-03-06T03:38:47;27.56;;;19.54;;
1987;SDS011;12775;46.994;15.498;2024-03-06T03:41:14;27.22;;;17.58;;
1987;SDS011;12775;46.994;15.498;2024-03-06T03:43:41;24.32;;;17.82;;
1987;SDS011;12775;46.994;15.498;2024-03-06T03:46:08;23.98;;;18.88;;
1987;SDS011;12775;46.994;15.498;2024-03-06T03:48:35;22.10;;;17.88;;
1987;SDS011;12775;46.994;15.498;2024-03-06T03:51:03;21.86;;;18.28;;
1987;SDS011;12775;46.994;15.498;2024-03-06T03:53:31;19.00;;;16.86;;
1987;SDS011;12775;46.994;15.498;2024-03-06T03:55:58;25.74;;;17.40;;
1987;SDS011;12775;46.994;15.498;2024-03-06T03:58:25;24.80;;;18.74;;
1987;SDS011;12775;46.994;15.498;2024-03-06T04:00:53;28.08;;;20.06;;
1987;SDS011;12775;46.994;15.498;2024-03-06T04:03:20;23.52;;;17.38;;
1987;SDS011;12775;46.994;15.498;2024-03-06T04:05:48;29.62;;;19.56;;
1987;SDS011;12775;46.994;15.498;2024-03-06T04:08:16;25.38;;;20.32;;
1987;SDS011;12775;46.994;15.498;2024-03-06T04:10:43;21.82;;;18.00;;
1987;SDS011;12775;46.994;15.498;2024-03-06T04:13:15;26.78;;;20.32;;
1987;SDS011;12775;46.994;15.498;2024-03-06T04:15:40;27.98;;;20.68;;
1987;SDS011;12775;46.994;15.498;2024-03-06T04:18:07;24.02;;;18.84;;
1987;SDS011;12775;46.994;15.498;2024-03-06T04:20:34;24.22;;;18.50;;
1987;SDS011;12775;46.994;15.498;2024-03-06T04:23:01;23.72;;;18.04;;
1987;SDS011;12775;46.994;15.498;2024-03-06T04:25:28;31.32;;;21.16;;
1987;SDS011;12775;46.994;15.498;2024-03-06T04:27:56;69.70;;;42.20;;
1987;SDS011;12775;46.994;15.498;2024-03-06T04:30:23;36.50;;;22.88;;
1987;SDS011;12775;46.994;15.498;2024-03-06T04:32:50;43.56;;;27.80;;
1987;SDS011;12775;46.994;15.498;2024-03-06T04:35:18;30.34;;;23.58;;
1987;SDS011;12775;46.994;15.498;2024-03-06T04:37:45;31.54;;;23.32;;
1987;SDS011;12775;46.994;15.498;2024-03-06T04:40:12;20.08;;;16.54;;
1987;SDS011;12775;46.994;15.498;2024-03-06T04:42:40;29.44;;;19.24;;
1987;SDS011;12775;46.994;15.498;2024-03-06T04:45:10;19.04;;;16.42;;
1987;SDS011;12775;46.994;15.498;2024-03-06T04:47:36;22.32;;;18.42;;
1987;SDS011;12775;46.994;15.498;2024-03-06T04:50:07;20.10;;;18.06;;
1987;SDS011;12775;46.994;15.498;2024-03-06T04:52:32;26.38;;;20.16;;
1987;SDS011;12775;46.994;15.498;2024-03-06T04:54:59;20.60;;;17.26;;
1987;SDS011;12775;46.994;15.498;2024-03-06T04:57:26;25.90;;;15.74;;
1987;SDS011;12775;46.994;15.498;2024-03-06T04:59:54;50.30;;;34.36;;
1987;SDS011;12775;46.994;15.498;2024-03-06T05:02:22;26.94;;;20.80;;
1987;SDS011;12775;46.994;15.498;2024-03-06T05:04:48;23.40;;;19.52;;
1987;SDS011;12775;46.994;15.498;2024-03-06T05:07:16;25.36;;;18.70;;
1987;SDS011;12775;46.994;15.498;2024-03-06T05:09:43;36.74;;;25.28;;
1987;SDS011;12775;46.994;15.498;2024-03-06T05:12:10;36.90;;;22.38;;
1987;SDS011;12775;46.994;15.498;2024-03-06T05:14:38;25.56;;;21.60;;
1987;SDS011;12775;46.994;15.498;2024-03-06T05:17:05;28.10;;;18.90;;
1987;SDS011;12775;46.994;15.498;2024-03-06T05:19:33;42.24;;;22.70;;
1987;SDS011;12775;46.994;15.498;2024-03-06T05:21:59;36.48;;;22.02;;
1987;SDS011;12775;46.994;15.498;2024-03-06T05:24:26;27.80;;;19.46;;
1987;SDS011;12775;46.994;15.498;2024-03-06T05:26:53;28.92;;;18.30;;
1987;SDS011;12775;46.994;15.498;2024-03-06T05:29:20;23.72;;;18.24;;
1987;SDS011;12775;46.994;15.498;2024-03-06T05:31:48;30.20;;;18.82;;
1987;SDS011;12775;46.994;15.498;2024-03-06T05:34:15;30.58;;;22.06;;
1987;SDS011;12775;46.994;15.498;2024-03-06T05:36:43;30.04;;;19.20;;
1987;SDS011;12775;46.994;15.498;2024-03-06T05:39:10;26.00;;;18.32;;
1987;SDS011;12775;46.994;15.498;2024-03-06T05:41:38;24.40;;;18.32;;
1987;SDS011;12775;46.994;15.498;2024-03-06T05:44:05;25.18;;;19.48;;
1987;SDS011;12775;46.994;15.498;2024-03-06T05:46:33;33.34;;;19.72;;
1987;SDS011;12775;46.994;15.498;2024-03-06T05:49:00;27.16;;;21.22;;
1987;SDS011;12775;46.994;15.498;2024-03-06T05:51:28;32.44;;;18.96;;
1987;SDS011;12775;46.994;15.498;2024-03-06T05:53:55;28.66;;;18.80;;
1987;SDS011;12775;46.994;15.498;2024-03-06T05:56:22;24.78;;;19.50;;
1987;SDS011;12775;46.994;15.498;2024-03-06T05:58:50;19.24;;;15.94;;
1987;SDS011;12775;46.994;15.498;2024-03-06T06:01:17;32.30;;;18.52;;
1987;SDS011;12775;46.994;15.498;2024-03-06T06:03:45;24.34;;;19.34;;
1987;SDS011;12775;46.994;15.498;2024-03-06T06:06:11;21.50;;;18.90;;
1987;SDS011;12775;46.994;15.498;2024-03-06T06:08:38;31.24;;;20.46;;
1987;SDS011;12775;46.994;15.498;2024-03-06T06:11:05;23.62;;;19.54;;
1987;SDS011;12775;46.994;15.498;2024-03-06T06:13:32;25.36;;;17.04;;
1987;SDS011;12775;46.994;15.498;2024-03-06T06:16:00;25.80;;;21.10;;
1987;SDS011;12775;46.994;15.498;2024-03-06T06:18:29;27.68;;;22.90;;
1987;SDS011;12775;46.994;15.498;2024-03-06T06:20:56;28.72;;;23.90;;
1987;SDS011;12775;46.994;15.498;2024-03-06T06:23:24;32.40;;;23.20;;
1987;SDS011;12775;46.994;15.498;2024-03-06T06:25:51;31.46;;;23.82;;
1987;SDS011;12775;46.994;15.498;2024-03-06T06:28:18;28.04;;;23.06;;
1987;SDS011;12775;46.994;15.498;2024-03-06T06:30:46;32.82;;;24.32;;
1987;SDS011;12775;46.994;15.498;2024-03-06T06:33:13;34.84;;;26.60;;
1987;SDS011;12775;46.994;15.498;2024-03-06T06:35:40;30.84;;;24.28;;
1987;SDS011;12775;46.994;15.498;2024-03-06T06:38:08;33.94;;;27.90;;
1987;SDS011;12775;46.994;15.498;2024-03-06T06:40:35;32.46;;;26.28;;
1987;SDS011;12775;46.994;15.498;2024-03-06T06:43:02;28.96;;;24.00;;
1987;SDS011;12775;46.994;15.498;2024-03-06T06:45:30;31.24;;;25.30;;
1987;SDS011;12775;46.994;15.498;2024-03-06T06:47:58;30.82;;;25.60;;
1987;SDS011;12775;46.994;15.498;2024-03-06T06:50:25;27.80;;;23.32;;
1987;SDS011;12775;46.994;15.498;2024-03-06T06:52:53;31.56;;;26.32;;
1987;SDS011;12775;46.994;15.498;2024-03-06T06:55:21;31.46;;;25.04;;
1987;SDS011;12775;46.994;15.498;2024-03-06T06:57:49;30.32;;;25.86;;
1987;SDS011;12775;46.994;15.498;2024-03-06T07:00:16;31.86;;;24.44;;
1987;SDS011;12775;46.994;15.498;2024-03-06T07:02:44;31.50;;;24.00;;
1987;SDS011;12775;46.994;15.498;2024-03-06T07:05:11;36.24;;;26.96;;
1987;SDS011;12775;46.994;15.498;2024-03-06T07:07:38;32.12;;;26.00;;
1987;SDS011;12775;46.994;15.498;2024-03-06T07:10:06;42.46;;;33.06;;
1987;SDS011;12775;46.994;15.498;2024-03-06T07:12:34;38.38;;;28.78;;
1987;SDS011;12775;46.994;15.498;2024-03-06T07:15:01;54.94;;;49.20;;
1987;SDS011;12775;46.994;15.498;2024-03-06T07:17:29;38.60;;;30.80;;
1987;SDS011;12775;46.994;15.498;2024-03-06T07:19:56;30.80;;;25.16;;
1987;SDS011;12775;46.994;15.498;2024-03-06T07:22:24;34.80;;;29.04;;
1987;SDS011;12775;46.994;15.498;2024-03-06T07:24:51;33.86;;;26.62;;
1987;SDS011;12775;46.994;15.498;2024-03-06T07:27:19;42.52;;;29.78;;
1987;SDS011;12775;46.994;15.498;2024-03-06T07:29:46;35.42;;;24.66;;
1987;SDS011;12775;46.994;15.498;2024-03-06T07:32:13;31.40;;;26.40;;
1987;SDS011;12775;46.994;15.498;2024-03-06T07:34:41;33.34;;;25.18;;
1987;SDS011;12775;46.994;15.498;2024-03-06T07:37:08;36.52;;;26.24;;
1987;SDS011;12775;46.994;15.498;2024-03-06T07:39:35;28.68;;;25.56;;
1987;SDS011;12775;46.994;15.498;2024-03-06T07:42:03;26.82;;;22.70;;
1987;SDS011;12775;46.994;15.498;2024-03-06T07:44:30;27.28;;;23.44;;
1987;SDS011;12775;46.994;15.498;2024-03-06T07:46:58;28.18;;;23.90;;
1987;SDS011;12775;46.994;15.498;2024-03-06T07:49:25;31.76;;;23.10;;
1987;SDS011;12775;46.994;15.498;2024-03-06T07:51:53;34.28;;;24.92;;
1987;SDS011;12775;46.994;15.498;2024-03-06T07:54:20;33.16;;;25.76;;
1987;SDS011;12775;46.994;15.498;2024-03-06T07:56:47;30.54;;;23.76;;
1987;SDS011;12775;46.994;15.498;2024-03-06T07:59:14;36.74;;;25.98;;
1987;SDS011;12775;46.994;15.498;2024-03-06T08:01:41;34.18;;;25.14;;
1987;SDS011;12775;46.994;15.498;2024-03-06T08:04:09;27.68;;;24.88;;
1987;SDS011;12775;46.994;15.498;2024-03-06T08:06:36;36.36;;;26.64;;
1987;SDS011;12775;46.994;15.498;2024-03-06T08:09:04;34.70;;;27.48;;
1987;SDS011;12775;46.994;15.498;2024-03-06T08:11:31;35.40;;;27.34;;
1987;SDS011;12775;46.994;15.498;2024-03-06T08:13:58;39.50;;;28.42;;
1987;SDS011;12775;46.994;15.498;2024-03-06T08:16:25;47.40;;;30.78;;
1987;SDS011;12775;46.994;15.498;2024-03-06T08:18:53;37.42;;;29.50;;
1987;SDS011;12775;46.994;15.498;2024-03-06T08:21:20;38.10;;;28.20;;
1987;SDS011;12775;46.994;15.498;2024-03-06T08:23:48;40.98;;;30.86;;
1987;SDS011;12775;46.994;15.498;2024-03-06T08:26:15;46.64;;;31.52;;
1987;SDS011;12775;46.994;15.498;2024-03-06T08:28:42;33.68;;;25.78;;
1987;SDS011;12775;46.994;15.498;2024-03-06T08:31:10;37.88;;;28.88;;
1987;SDS011;12775;46.994;15.498;2024-03-06T08:33:37;38.00;;;27.76;;
1987;SDS011;12775;46.994;15.498;2024-03-06T08:36:04;32.60;;;26.86;;
1987;SDS011;12775;46.994;15.498;2024-03-06T08:38:33;35.16;;;28.74;;
1987;SDS011;12775;46.994;15.498;2024-03-06T08:41:00;36.26;;;26.22;;
1987;SDS011;12775;46.994;15.498;2024-03-06T08:43:27;37.22;;;28.86;;
1987;SDS011;12775;46.994;15.498;2024-03-06T08:45:56;36.40;;;25.66;;
1987;SDS011;12775;46.994;15.498;2024-03-06T08:48:23;35.54;;;25.76;;
1987;SDS011;12775;46.994;15.498;2024-03-06T08:50:50;33.36;;;27.16;;
1987;SDS011;12775;46.994;15.498;2024-03-06T08:53:17;35.12;;;27.82;;
1987;SDS011;12775;46.994;15.498;2024-03-06T08:55:44;34.62;;;25.68;;
1987;SDS011;12775;46.994;15.498;2024-03-06T08:58:12;35.88;;;27.32;;
1987;SDS011;12775;46.994;15.498;2024-03-06T09:00:39;34.66;;;25.04;;
1987;SDS011;12775;46.994;15.498;2024-03-06T09:03:07;35.02;;;27.12;;
1987;SDS011;12775;46.994;15.498;2024-03-06T09:05:34;30.96;;;23.76;;
1987;SDS011;12775;46.994;15.498;2024-03-06T09:08:01;30.66;;;26.36;;
1987;SDS011;12775;46.994;15.498;2024-03-06T09:10:29;31.60;;;24.58;;
1987;SDS011;12775;46.994;15.498;2024-03-06T09:12:56;31.60;;;25.88;;
1987;SDS011;12775;46.994;15.498;2024-03-06T09:15:23;27.64;;;24.60;;
1987;SDS011;12775;46.994;15.498;2024-03-06T09:17:51;28.24;;;21.72;;
1987;SDS011;12775;46.994;15.498;2024-03-06T09:20:18;27.66;;;23.04;;
1987;SDS011;12775;46.994;15.498;2024-03-06T09:22:45;30.48;;;24.76;;
1987;SDS011;12775;46.994;15.498;2024-03-06T09:25:13;34.66;;;25.06;;
1987;SDS011;12775;46.994;15.498;2024-03-06T09:27:40;29.76;;;24.32;;
1987;SDS011;12775;46.994;15.498;2024-03-06T09:30:08;29.40;;;23.98;;
1987;SDS011;12775;46.994;15.498;2024-03-06T09:32:37;27.66;;;21.54;;
1987;SDS011;12775;46.994;15.498;2024-03-06T09:35:04;30.10;;;23.26;;
1987;SDS011;12775;46.994;15.498;2024-03-06T09:37:32;29.40;;;23.74;;
1987;SDS011;12775;46.994;15.498;2024-03-06T09:39:59;33.50;;;25.24;;
1987;SDS011;12775;46.994;15.498;2024-03-06T09:42:26;40.26;;;25.80;;
1987;SDS011;12775;46.994;15.498;2024-03-06T09:44:54;28.84;;;24.30;;
1987;SDS011;12775;46.994;15.498;2024-03-06T09:47:21;26.26;;;22.56;;
1987;SDS011;12775;46.994;15.498;2024-03-06T09:49:50;28.20;;;21.32;;
1987;SDS011;12775;46.994;15.498;2024-03-06T09:52:16;27.48;;;21.90;;
1987;SDS011;12775;46.994;15.498;2024-03-06T09:54:44;29.74;;;23.30;;
1987;SDS011;12775;46.994;15.498;2024-03-06T09:57:12;32.08;;;21.86;;
1987;SDS011;12775;46.994;15.498;2024-03-06T09:59:39;28.46;;;23.94;;
1987;SDS011;12775;46.994;15.498;2024-03-06T10:02:07;27.08;;;23.68;;
1987;SDS011;12775;46.994;15.498;2024-03-06T10:04:34;31.42;;;22.68;;
1987;SDS011;12775;46.994;15.498;2024-03-06T10:07:01;26.10;;;21.64;;
1987;SDS011;12775;46.994;15.498;2024-03-06T10:09:28;31.76;;;24.26;;
1987;SDS011;12775;46.994;15.498;2024-03-06T10:11:56;30.08;;;24.96;;
1987;SDS011;12775;46.994;15.498;2024-03-06T10:14:23;31.80;;;24.52;;
1987;SDS011;12775;46.994;15.498;2024-03-06T10:16:54;28.54;;;24.02;;
1987;SDS011;12775;46.994;15.498;2024-03-06T10:19:21;32.62;;;25.50;;
1987;SDS011;12775;46.994;15.498;2024-03-06T10:21:49;27.64;;;22.40;;
1987;SDS011;12775;46.994;15.498;2024-03-06T10:24:18;32.60;;;24.34;;
1987;SDS011;12775;46.994;15.498;2024-03-06T10:26:46;37.04;;;25.64;;
1987;SDS011;12775;46.994;15.498;2024-03-06T10:29:15;30.42;;;24.20;;
1987;SDS011;12775;46.994;15.498;2024-03-06T10:31:46;32.74;;;25.68;;
1987;SDS011;12775;46.994;15.498;2024-03-06T10:34:09;30.90;;;23.92;;
1987;SDS011;12775;46.994;15.498;2024-03-06T10:36:37;31.94;;;26.08;;
1987;SDS011;12775;46.994;15.498;2024-03-06T10:39:05;33.76;;;24.16;;
1987;SDS011;12775;46.994;15.498;2024-03-06T10:41:32;29.12;;;24.80;;
1987;SDS011;12775;46.994;15.498;2024-03-06T10:43:59;29.88;;;25.36;;
1987;SDS011;12775;46.994;15.498;2024-03-06T10:46:27;30.46;;;25.18;;
1987;SDS011;12775;46.994;15.498;2024-03-06T10:48:54;33.48;;;26.12;;
1987;SDS011;12775;46.994;15.498;2024-03-06T10:51:21;27.24;;;24.32;;
1987;SDS011;12775;46.994;15.498;2024-03-06T10:53:49;30.00;;;25.00;;
1987;SDS011;12775;46.994;15.498;2024-03-06T10:56:16;29.52;;;25.40;;
1987;SDS011;12775;46.994;15.498;2024-03-06T10:58:43;25.10;;;21.64;;
1987;SDS011;12775;46.994;15.498;2024-03-06T11:01:11;28.04;;;23.12;;
1987;SDS011;12775;46.994;15.498;2024-03-06T11:03:38;28.88;;;24.16;;
1987;SDS011;12775;46.994;15.498;2024-03-06T11:06:05;30.12;;;24.72;;
1987;SDS011;12775;46.994;15.498;2024-03-06T11:08:33;35.94;;;27.04;;
1987;SDS011;12775;46.994;15.498;2024-03-06T11:11:39;36.66;;;25.70;;
1987;SDS011;12775;46.994;15.498;2024-03-06T11:13:45;29.78;;;24.26;;
1987;SDS011;12775;46.994;15.498;2024-03-06T11:16:13;31.08;;;25.32;;
1987;SDS011;12775;46.994;15.498;2024-03-06T11:18:40;32.52;;;25.82;;
1987;SDS011;12775;46.994;15.498;2024-03-06T11:26:36;30.16;;;25.64;;
1987;SDS011;12775;46.994;15.498;2024-03-06T11:29:03;28.52;;;23.02;;
1987;SDS011;12775;46.994;15.498;2024-03-06T11:31:31;29.98;;;23.38;;
1987;SDS011;12775;46.994;15.498;2024-03-06T11:33:58;30.46;;;22.64;;
1987;SDS011;12775;46.994;15.498;2024-03-06T11:36:26;32.16;;;24.86;;
1987;SDS011;12775;46.994;15.498;2024-03-06T11:44:14;27.56;;;22.46;;
1987;SDS011;12775;46.994;15.498;2024-03-06T11:46:45;27.86;;;21.20;;
1987;SDS011;12775;46.994;15.498;2024-03-06T11:49:15;25.96;;;22.02;;
1987;SDS011;12775;46.994;15.498;2024-03-06T11:51:44;26.84;;;22.96;;
1987;SDS011;12775;46.994;15.498;2024-03-06T11:54:09;25.00;;;21.92;;
1987;SDS011;12775;46.994;15.498;2024-03-06T11:56:39;26.16;;;22.72;;
1987;SDS011;12775;46.994;15.498;2024-03-06T11:59:07;29.84;;;21.64;;
1987;SDS011;12775;46.994;15.498;2024-03-06T12:01:34;26.22;;;20.58;;
1987;SDS011;12775;46.994;15.498;2024-03-06T12:04:01;30.42;;;22.94;;
1987;SDS011;12775;46.994;15.498;2024-03-06T12:06:29;30.66;;;24.06;;
1987;SDS011;12775;46.994;15.498;2024-03-06T12:08:56;30.30;;;23.56;;
1987;SDS011;12775;46.994;15.498;2024-03-06T12:11:24;27.84;;;22.42;;
1987;SDS011;12775;46.994;15.498;2024-03-06T12:13:52;26.12;;;21.46;;
1987;SDS011;12775;46.994;15.498;2024-03-06T12:16:19;25.26;;;21.74;;
1987;SDS011;12775;46.994;15.498;2024-03-06T12:18:52;25.76;;;21.64;;
1987;SDS011;12775;46.994;15.498;2024-03-06T12:21:15;30.28;;;21.56;;
1987;SDS011;12775;46.994;15.498;2024-03-06T12:23:42;28.48;;;22.02;;
1987;SDS011;12775;46.994;15.498;2024-03-06T12:26:09;25.38;;;22.10;;
1987;SDS011;12775;46.994;15.498;2024-03-06T12:28:37;26.78;;;21.46;;
1987;SDS011;12775;46.994;15.498;2024-03-06T12:31:06;28.74;;;22.86;;
1987;SDS011;12775;46.994;15.498;2024-03-06T12:33:34;29.26;;;22.38;;
1987;SDS011;12775;46.994;15.498;2024-03-06T12:36:02;30.22;;;23.30;;
1987;SDS011;12775;46.994;15.498;2024-03-06T12:38:37;28.02;;;22.84;;
1987;SDS011;12775;46.994;15.498;2024-03-06T12:41:05;24.86;;;21.86;;
1987;SDS011;12775;46.994;15.498;2024-03-06T12:43:32;28.28;;;21.60;;
1987;SDS011;12775;46.994;15.498;2024-03-06T12:45:59;25.40;;;21.68;;
1987;SDS011;12775;46.994;15.498;2024-03-06T12:48:26;25.02;;;22.26;;
1987;SDS011;12775;46.994;15.498;2024-03-06T12:50:53;27.26;;;22.28;;
1987;SDS011;12775;46.994;15.498;2024-03-06T12:53:21;25.10;;;21.00;;
1987;SDS011;12775;46.994;15.498;2024-03-06T12:55:47;33.80;;;23.46;;
1987;SDS011;12775;46.994;15.498;2024-03-06T12:58:15;31.36;;;24.28;;
1987;SDS011;12775;46.994;15.498;2024-03-06T13:00:42;26.16;;;22.46;;
1987;SDS011;12775;46.994;15.498;2024-03-06T13:03:09;26.56;;;23.58;;
1987;SDS011;12775;46.994;15.498;2024-03-06T13:05:37;27.76;;;22.94;;
1987;SDS011;12775;46.994;15.498;2024-03-06T13:08:05;27.40;;;24.08;;
1987;SDS011;12775;46.994;15.498;2024-03-06T13:10:33;27.38;;;23.46;;
1987;SDS011;12775;46.994;15.498;2024-03-06T13:12:59;26.68;;;23.30;;
1987;SDS011;12775;46.994;15.498;2024-03-06T13:15:26;30.36;;;23.98;;
1987;SDS011;12775;46.994;15.498;2024-03-06T13:17:53;31.06;;;23.20;;
1987;SDS011;12775;46.994;15.498;2024-03-06T13:20:20;27.26;;;22.48;;
1987;SDS011;12775;46.994;15.498;2024-03-06T13:22:47;30.22;;;24.00;;
1987;SDS011;12775;46.994;15.498;2024-03-06T13:25:14;26.80;;;22.74;;
1987;SDS011;12775;46.994;15.498;2024-03-06T13:27:40;24.66;;;21.96;;
1987;SDS011;12775;46.994;15.498;2024-03-06T13:30:08;24.36;;;21.68;;
1987;SDS011;12775;46.994;15.498;2024-03-06T13:32:35;27.92;;;23.04;;
1987;SDS011;12775;46.994;15.498;2024-03-06T13:35:02;25.84;;;21.72;;
1987;SDS011;12775;46.994;15.498;2024-03-06T13:37:30;25.48;;;22.74;;
1987;SDS011;12775;46.994;15.498;2024-03-06T13:39:57;27.52;;;23.00;;
1987;SDS011;12775;46.994;15.498;2024-03-06T13:42:25;25.88;;;20.70;;
1987;SDS011;12775;46.994;15.498;2024-03-06T13:44:52;26.66;;;21.12;;
1987;SDS011;12775;46.994;15.498;2024-03-06T13:47:19;28.36;;;22.18;;
1987;SDS011;12775;46.994;15.498;2024-03-06T13:49:47;27.04;;;21.58;;
1987;SDS011;12775;46.994;15.498;2024-03-06T13:52:14;30.14;;;24.14;;
1987;SDS011;12775;46.994;15.498;2024-03-06T13:54:42;31.60;;;23.52;;
1987;SDS011;12775;46.994;15.498;2024-03-06T13:57:09;26.22;;;21.02;;
1987;SDS011;12775;46.994;15.498;2024-03-06T13:59:35;22.86;;;20.38;;
1987;SDS011;12775;46.994;15.498;2024-03-06T14:02:03;26.86;;;21.70;;
1987;SDS011;12775;46.994;15.498;2024-03-06T14:04:30;24.68;;;21.20;;
1987;SDS011;12775;46.994;15.498;2024-03-06T14:06:58;26.88;;;20.88;;
1987;SDS011;12775;46.994;15.498;2024-03-06T14:09:25;27.82;;;23.18;;
1987;SDS011;12775;46.994;15.498;2024-03-06T14:11:53;26.34;;;20.48;;
1987;SDS011;12775;46.994;15.498;2024-03-06T14:14:20;30.86;;;22.78;;
1987;SDS011;12775;46.994;15.498;2024-03-06T14:16:47;51.04;;;45.46;;
1987;SDS011;12775;46.994;15.498;2024-03-06T14:19:15;28.80;;;22.12;;
1987;SDS011;12775;46.994;15.498;2024-03-06T14:21:42;22.38;;;19.96;;
1987;SDS011;12775;46.994;15.498;2024-03-06T14:24:09;24.04;;;20.46;;
1987;SDS011;12775;46.994;15.498;2024-03-06T14:26:36;26.64;;;20.40;;
1987;SDS011;12775;46.994;15.498;2024-03-06T14:29:05;28.30;;;23.12;;
1987;SDS011;12775;46.994;15.498;2024-03-06T14:31:32;26.30;;;22.28;;
1987;SDS011;12775;46.994;15.498;2024-03-06T14:33:59;29.18;;;24.92;;
1987;SDS011;12775;46.994;15.498;2024-03-06T14:36:26;27.64;;;22.58;;